sensor_id;sensor_type;location;lat;lon;timestamp;temperature;humidity
1123;DHT22;548;48.778;9.252;2022-08-03T00:02:10;20.30;99.90
1123;DHT22;548;48.778;9.252;2022-08-03T00:04:37;20.30;99.90
1123;DHT22;548;48.778;9.252;2022-08-03T00:07:03;20.30;99.90
1123;DHT22;548;48.778;9.252;2022-08-03T00:09:30;20.20;99.90
1123;DHT22;548;48.778;9.252;2022-08-03T00:11:58;20.20;99.90
1123;DHT22;548;48.778;9.252;2022-08-03T00:14:25;20.20;99.90
1123;DHT22;548;48.778;9.252;2022-08-03T00:16:51;20.20;99.90
1123;DHT22;548;48.778;9.252;2022-08-03T00:19:18;20.20;99.90
1123;DHT22;548;48.778;9.252;2022-08-03T00:21:45;20.20;99.90
1123;DHT22;548;48.778;9.252;2022-08-03T00:24:11;20.20;99.90
1123;DHT22;548;48.778;9.252;2022-08-03T00:26:38;20.10;99.90
1123;DHT22;548;48.778;9.252;2022-08-03T02:58:02;18.70;99.90
1123;DHT22;548;48.778;9.252;2022-08-03T03:00:30;18.70;99.90
1123;DHT22;548;48.778;9.252;2022-08-03T03:02:57;18.70;99.90
1123;DHT22;548;48.778;9.252;2022-08-03T03:05:25;18.70;99.90
1123;DHT22;548;48.778;9.252;2022-08-03T03:07:52;18.60;99.90
1123;DHT22;548;48.778;9.252;2022-08-03T03:10:20;18.60;99.90
1123;DHT22;548;48.778;9.252;2022-08-03T03:12:49;18.60;99.90
1123;DHT22;548;48.778;9.252;2022-08-03T03:15:18;18.60;99.90
1123;DHT22;548;48.778;9.252;2022-08-03T03:17:45;18.60;99.90
1123;DHT22;548;48.778;9.252;2022-08-03T03:20:14;18.60;99.90
1123;DHT22;548;48.778;9.252;2022-08-03T03:22:41;18.60;99.90
1123;DHT22;548;48.778;9.252;2022-08-03T03:25:09;18.50;99.90
1123;DHT22;548;48.778;9.252;2022-08-03T03:27:36;18.50;99.90
1123;DHT22;548;48.778;9.252;2022-08-03T03:30:05;18.50;99.90
1123;DHT22;548;48.778;9.252;2022-08-03T03:32:33;18.40;99.90
1123;DHT22;548;48.778;9.252;2022-08-03T03:35:01;18.50;99.90
1123;DHT22;548;48.778;9.252;2022-08-03T03:37:30;18.40;99.90
1123;DHT22;548;48.778;9.252;2022-08-03T03:39:56;18.40;99.90
1123;DHT22;548;48.778;9.252;2022-08-03T03:42:24;18.40;99.90
1123;DHT22;548;48.778;9.252;2022-08-03T03:44:51;18.40;99.90
1123;DHT22;548;48.778;9.252;2022-08-03T03:47:17;18.30;99.90
1123;DHT22;548;48.778;9.252;2022-08-03T03:49:46;18.30;99.90
1123;DHT22;548;48.778;9.252;2022-08-03T03:52:12;18.30;99.90
1123;DHT22;548;48.778;9.252;2022-08-03T03:54:40;18.30;99.90
1123;DHT22;548;48.778;9.252;2022-08-03T03:57:07;18.40;99.90
1123;DHT22;548;48.778;9.252;2022-08-03T03:59:36;18.30;99.90
1123;DHT22;548;48.778;9.252;2022-08-03T04:02:03;18.30;99.90
1123;DHT22;548;48.778;9.252;2022-08-03T04:04:31;18.30;99.90
1123;DHT22;548;48.778;9.252;2022-08-03T04:07:16;18.40;99.90
1123;DHT22;548;48.778;9.252;2022-08-03T04:10:02;18.40;99.90
1123;DHT22;548;48.778;9.252;2022-08-03T04:12:47;18.40;99.90
1123;DHT22;548;48.778;9.252;2022-08-03T04:15:18;18.40;99.90
1123;DHT22;548;48.778;9.252;2022-08-03T04:17:47;18.40;99.90
1123;DHT22;548;48.778;9.252;2022-08-03T04:20:15;18.40;99.90
1123;DHT22;548;48.778;9.252;2022-08-03T04:22:45;18.40;99.90
1123;DHT22;548;48.778;9.252;2022-08-03T04:25:15;18.40;99.90
1123;DHT22;548;48.778;9.252;2022-08-03T04:27:45;18.50;99.90
1123;DHT22;548;48.778;9.252;2022-08-03T04:30:13;18.50;99.90
1123;DHT22;548;48.778;9.252;2022-08-03T04:32:42;18.50;99.90
1123;DHT22;548;48.778;9.252;2022-08-03T04:35:10;18.50;99.90
1123;DHT22;548;48.778;9.252;2022-08-03T04:37:38;18.60;99.90
1123;DHT22;548;48.778;9.252;2022-08-03T04:40:12;18.60;99.90
1123;DHT22;548;48.778;9.252;2022-08-03T04:42:39;18.60;99.90
1123;DHT22;548;48.778;9.252;2022-08-03T04:45:11;18.60;99.90
1123;DHT22;548;48.778;9.252;2022-08-03T04:47:38;18.60;99.90
1123;DHT22;548;48.778;9.252;2022-08-03T04:50:06;18.70;99.90
1123;DHT22;548;48.778;9.252;2022-08-03T04:52:34;19.00;99.90
1123;DHT22;548;48.778;9.252;2022-08-03T04:55:01;19.40;99.90
1123;DHT22;548;48.778;9.252;2022-08-03T04:57:29;19.70;99.90
1123;DHT22;548;48.778;9.252;2022-08-03T04:59:56;20.10;99.90
1123;DHT22;548;48.778;9.252;2022-08-03T05:02:23;20.40;99.90
1123;DHT22;548;48.778;9.252;2022-08-03T05:04:49;20.70;99.90
1123;DHT22;548;48.778;9.252;2022-08-03T05:07:17;20.80;99.90
1123;DHT22;548;48.778;9.252;2022-08-03T05:09:44;20.80;99.90
1123;DHT22;548;48.778;9.252;2022-08-03T05:12:11;20.90;99.90
1123;DHT22;548;48.778;9.252;2022-08-03T05:14:39;20.90;99.90
1123;DHT22;548;48.778;9.252;2022-08-03T05:17:06;21.00;99.90
1123;DHT22;548;48.778;9.252;2022-08-03T05:19:33;21.00;99.90
1123;DHT22;548;48.778;9.252;2022-08-03T05:22:00;21.10;99.90
1123;DHT22;548;48.778;9.252;2022-08-03T05:24:27;21.20;99.90
1123;DHT22;548;48.778;9.252;2022-08-03T05:26:54;21.40;99.90
1123;DHT22;548;48.778;9.252;2022-08-03T05:29:21;21.60;99.90
1123;DHT22;548;48.778;9.252;2022-08-03T05:31:49;21.80;99.90
1123;DHT22;548;48.778;9.252;2022-08-03T05:34:15;21.90;99.90
1123;DHT22;548;48.778;9.252;2022-08-03T05:36:42;21.90;99.90
1123;DHT22;548;48.778;9.252;2022-08-03T05:39:09;22.10;99.90
1123;DHT22;548;48.778;9.252;2022-08-03T05:41:35;22.20;99.90
1123;DHT22;548;48.778;9.252;2022-08-03T05:44:02;22.40;99.90
1123;DHT22;548;48.778;9.252;2022-08-03T05:46:29;22.50;99.90
1123;DHT22;548;48.778;9.252;2022-08-03T05:48:57;22.80;99.90
1123;DHT22;548;48.778;9.252;2022-08-03T05:51:24;23.00;99.90
1123;DHT22;548;48.778;9.252;2022-08-03T05:53:50;23.30;99.90
1123;DHT22;548;48.778;9.252;2022-08-03T05:56:21;23.50;99.90
1123;DHT22;548;48.778;9.252;2022-08-03T05:58:48;23.70;99.90
1123;DHT22;548;48.778;9.252;2022-08-03T06:01:17;23.80;99.90
1123;DHT22;548;48.778;9.252;2022-08-03T06:03:46;23.80;99.90
1123;DHT22;548;48.778;9.252;2022-08-03T06:06:14;24.00;99.90
1123;DHT22;548;48.778;9.252;2022-08-03T06:08:42;24.00;99.90
1123;DHT22;548;48.778;9.252;2022-08-03T06:11:10;24.00;99.90
1123;DHT22;548;48.778;9.252;2022-08-03T06:13:37;23.90;99.90
1123;DHT22;548;48.778;9.252;2022-08-03T06:16:04;24.10;99.90
1123;DHT22;548;48.778;9.252;2022-08-03T06:18:31;24.40;99.90
1123;DHT22;548;48.778;9.252;2022-08-03T06:20:58;24.70;99.90
1123;DHT22;548;48.778;9.252;2022-08-03T06:23:26;24.90;99.90
1123;DHT22;548;48.778;9.252;2022-08-03T06:25:53;25.00;99.90
1123;DHT22;548;48.778;9.252;2022-08-03T06:28:19;25.00;99.90
1123;DHT22;548;48.778;9.252;2022-08-03T06:30:46;25.00;99.90
1123;DHT22;548;48.778;9.252;2022-08-03T06:33:13;24.90;99.90
1123;DHT22;548;48.778;9.252;2022-08-03T06:35:41;25.30;99.90
1123;DHT22;548;48.778;9.252;2022-08-03T06:38:07;25.60;99.90
1123;DHT22;548;48.778;9.252;2022-08-03T06:40:36;25.80;99.90
1123;DHT22;548;48.778;9.252;2022-08-03T06:43:05;25.60;99.90
1123;DHT22;548;48.778;9.252;2022-08-03T06:45:32;25.80;99.90
1123;DHT22;548;48.778;9.252;2022-08-03T06:48:00;26.10;99.90
1123;DHT22;548;48.778;9.252;2022-08-03T06:50:27;26.30;99.90
1123;DHT22;548;48.778;9.252;2022-08-03T06:52:54;26.60;99.90
1123;DHT22;548;48.778;9.252;2022-08-03T06:55:21;26.90;99.80
1123;DHT22;548;48.778;9.252;2022-08-03T06:57:49;27.00;99.70
1123;DHT22;548;48.778;9.252;2022-08-03T07:00:16;26.90;99.30
1123;DHT22;548;48.778;9.252;2022-08-03T07:02:43;26.90;99.10
1123;DHT22;548;48.778;9.252;2022-08-03T07:05:10;27.20;98.60
1123;DHT22;548;48.778;9.252;2022-08-03T07:07:38;27.10;98.70
1123;DHT22;548;48.778;9.252;2022-08-03T07:10:05;27.00;98.50
1123;DHT22;548;48.778;9.252;2022-08-03T07:12:33;27.00;98.80
1123;DHT22;548;48.778;9.252;2022-08-03T07:15:02;27.00;99.10
1123;DHT22;548;48.778;9.252;2022-08-03T07:17:29;27.10;98.60
1123;DHT22;548;48.778;9.252;2022-08-03T07:19:56;27.30;98.40
1123;DHT22;548;48.778;9.252;2022-08-03T07:22:23;27.60;97.90
1123;DHT22;548;48.778;9.252;2022-08-03T07:24:50;28.00;97.00
1123;DHT22;548;48.778;9.252;2022-08-03T07:27:17;28.10;96.80
1123;DHT22;548;48.778;9.252;2022-08-03T07:29:43;28.20;96.30
1123;DHT22;548;48.778;9.252;2022-08-03T07:32:11;28.00;96.40
1123;DHT22;548;48.778;9.252;2022-08-03T07:34:38;27.90;96.90
1123;DHT22;548;48.778;9.252;2022-08-03T07:37:05;28.20;96.50
1123;DHT22;548;48.778;9.252;2022-08-03T07:39:32;28.30;96.00
1123;DHT22;548;48.778;9.252;2022-08-03T07:41:59;28.40;95.70
1123;DHT22;548;48.778;9.252;2022-08-03T07:44:26;28.80;95.00
1123;DHT22;548;48.778;9.252;2022-08-03T07:46:52;29.30;93.60
1123;DHT22;548;48.778;9.252;2022-08-03T07:49:20;29.10;92.90
1123;DHT22;548;48.778;9.252;2022-08-03T07:51:47;29.40;92.60
1123;DHT22;548;48.778;9.252;2022-08-03T07:54:34;29.70;92.30
1123;DHT22;548;48.778;9.252;2022-08-03T07:57:01;29.60;92.10
1123;DHT22;548;48.778;9.252;2022-08-03T07:59:27;29.80;91.70
1123;DHT22;548;48.778;9.252;2022-08-03T08:01:54;30.10;90.90
1123;DHT22;548;48.778;9.252;2022-08-03T08:04:22;30.40;89.20
1123;DHT22;548;48.778;9.252;2022-08-03T08:06:49;30.80;88.40
1123;DHT22;548;48.778;9.252;2022-08-03T08:09:15;30.80;88.50
1123;DHT22;548;48.778;9.252;2022-08-03T08:11:42;30.80;88.00
1123;DHT22;548;48.778;9.252;2022-08-03T08:14:09;30.80;87.50
1123;DHT22;548;48.778;9.252;2022-08-03T08:16:36;31.30;85.20
1123;DHT22;548;48.778;9.252;2022-08-03T08:19:04;31.60;85.30
1123;DHT22;548;48.778;9.252;2022-08-03T08:21:32;32.00;82.20
1123;DHT22;548;48.778;9.252;2022-08-03T08:23:58;32.10;81.50
1123;DHT22;548;48.778;9.252;2022-08-03T08:26:25;32.80;78.70
1123;DHT22;548;48.778;9.252;2022-08-03T08:28:52;33.10;77.80
1123;DHT22;548;48.778;9.252;2022-08-03T08:31:18;33.50;73.80
1123;DHT22;548;48.778;9.252;2022-08-03T08:33:45;33.40;75.30
1123;DHT22;548;48.778;9.252;2022-08-03T08:36:12;33.60;75.50
1123;DHT22;548;48.778;9.252;2022-08-03T08:38:40;33.90;72.70
1123;DHT22;548;48.778;9.252;2022-08-03T08:41:10;34.10;70.80
1123;DHT22;548;48.778;9.252;2022-08-03T08:43:36;34.50;68.80
1123;DHT22;548;48.778;9.252;2022-08-03T08:46:04;34.80;65.90
1123;DHT22;548;48.778;9.252;2022-08-03T08:48:32;35.20;65.50
1123;DHT22;548;48.778;9.252;2022-08-03T08:51:01;35.50;62.80
1123;DHT22;548;48.778;9.252;2022-08-03T08:53:28;36.10;60.40
1123;DHT22;548;48.778;9.252;2022-08-03T08:55:59;36.50;58.60
1123;DHT22;548;48.778;9.252;2022-08-03T08:58:28;36.40;57.90
1123;DHT22;548;48.778;9.252;2022-08-03T09:00:56;36.80;57.20
1123;DHT22;548;48.778;9.252;2022-08-03T09:03:22;37.00;56.10
1123;DHT22;548;48.778;9.252;2022-08-03T09:05:49;37.40;55.20
1123;DHT22;548;48.778;9.252;2022-08-03T09:08:17;37.50;53.60
1123;DHT22;548;48.778;9.252;2022-08-03T09:10:43;37.90;52.40
1123;DHT22;548;48.778;9.252;2022-08-03T09:13:11;38.50;52.30
1123;DHT22;548;48.778;9.252;2022-08-03T09:15:38;39.50;50.70
1123;DHT22;548;48.778;9.252;2022-08-03T09:18:06;40.60;48.20
1123;DHT22;548;48.778;9.252;2022-08-03T09:20:34;40.60;46.80
1123;DHT22;548;48.778;9.252;2022-08-03T09:23:03;40.70;46.40
1123;DHT22;548;48.778;9.252;2022-08-03T09:25:34;41.20;44.80
1123;DHT22;548;48.778;9.252;2022-08-03T09:28:06;41.20;43.70
1123;DHT22;548;48.778;9.252;2022-08-03T09:30:35;41.40;43.50
1123;DHT22;548;48.778;9.252;2022-08-03T09:33:03;41.00;43.20
1123;DHT22;548;48.778;9.252;2022-08-03T09:35:30;40.10;43.50
1123;DHT22;548;48.778;9.252;2022-08-03T09:38:13;39.60;45.00
1123;DHT22;548;48.778;9.252;2022-08-03T09:40:41;39.90;44.80
1123;DHT22;548;48.778;9.252;2022-08-03T09:43:08;40.70;43.20
1123;DHT22;548;48.778;9.252;2022-08-03T09:45:38;41.30;42.20
1123;DHT22;548;48.778;9.252;2022-08-03T09:48:21;41.30;41.50
1123;DHT22;548;48.778;9.252;2022-08-03T09:50:49;41.10;41.50
1123;DHT22;548;48.778;9.252;2022-08-03T09:53:16;40.80;41.40
1123;DHT22;548;48.778;9.252;2022-08-03T09:55:50;40.70;42.50
1123;DHT22;548;48.778;9.252;2022-08-03T09:58:17;41.40;41.30
1123;DHT22;548;48.778;9.252;2022-08-03T10:00:54;42.00;39.40
1123;DHT22;548;48.778;9.252;2022-08-03T10:03:22;41.00;39.20
1123;DHT22;548;48.778;9.252;2022-08-03T10:05:49;40.70;40.90
1123;DHT22;548;48.778;9.252;2022-08-03T10:08:17;40.90;40.80
1123;DHT22;548;48.778;9.252;2022-08-03T10:10:45;40.30;40.60
1123;DHT22;548;48.778;9.252;2022-08-03T10:13:14;40.80;40.20
1123;DHT22;548;48.778;9.252;2022-08-03T10:15:41;41.30;39.20
1123;DHT22;548;48.778;9.252;2022-08-03T10:18:09;41.00;39.30
1123;DHT22;548;48.778;9.252;2022-08-03T10:20:42;41.80;38.20
1123;DHT22;548;48.778;9.252;2022-08-03T10:23:10;41.70;37.80
1123;DHT22;548;48.778;9.252;2022-08-03T10:25:37;40.80;37.40
1123;DHT22;548;48.778;9.252;2022-08-03T10:28:05;40.10;38.70
1123;DHT22;548;48.778;9.252;2022-08-03T10:30:34;40.10;38.50
1123;DHT22;548;48.778;9.252;2022-08-03T10:33:04;39.80;39.30
1123;DHT22;548;48.778;9.252;2022-08-03T10:35:36;40.40;38.90
1123;DHT22;548;48.778;9.252;2022-08-03T10:38:17;39.80;38.00
1123;DHT22;548;48.778;9.252;2022-08-03T10:40:45;39.10;38.70
1123;DHT22;548;48.778;9.252;2022-08-03T10:43:18;38.70;39.40
1123;DHT22;548;48.778;9.252;2022-08-03T10:45:45;38.80;38.90
1123;DHT22;548;48.778;9.252;2022-08-03T10:48:12;38.70;39.30
1123;DHT22;548;48.778;9.252;2022-08-03T10:50:41;38.90;39.30
1123;DHT22;548;48.778;9.252;2022-08-03T10:53:08;39.80;38.50
1123;DHT22;548;48.778;9.252;2022-08-03T10:55:36;40.30;37.60
1123;DHT22;548;48.778;9.252;2022-08-03T10:58:46;40.60;37.00
1123;DHT22;548;48.778;9.252;2022-08-03T11:01:14;39.70;37.70
1123;DHT22;548;48.778;9.252;2022-08-03T11:04:15;40.20;36.60
1123;DHT22;548;48.778;9.252;2022-08-03T11:06:45;40.50;37.00
1123;DHT22;548;48.778;9.252;2022-08-03T11:09:17;40.70;36.10
1123;DHT22;548;48.778;9.252;2022-08-03T11:11:46;40.20;36.70
1123;DHT22;548;48.778;9.252;2022-08-03T11:14:14;39.30;37.90
1123;DHT22;548;48.778;9.252;2022-08-03T11:16:44;39.30;38.70
1123;DHT22;548;48.778;9.252;2022-08-03T11:19:14;39.40;37.70
1123;DHT22;548;48.778;9.252;2022-08-03T11:21:58;38.90;38.20
1123;DHT22;548;48.778;9.252;2022-08-03T11:24:57;38.30;39.30
1123;DHT22;548;48.778;9.252;2022-08-03T11:27:25;38.80;39.30
1123;DHT22;548;48.778;9.252;2022-08-03T11:30:01;40.30;38.00
1123;DHT22;548;48.778;9.252;2022-08-03T11:32:56;41.50;36.40
1123;DHT22;548;48.778;9.252;2022-08-03T11:35:24;42.10;36.00
1123;DHT22;548;48.778;9.252;2022-08-03T11:38:06;41.70;35.70
1123;DHT22;548;48.778;9.252;2022-08-03T11:40:35;40.50;37.30
1123;DHT22;548;48.778;9.252;2022-08-03T11:43:03;40.80;37.00
1123;DHT22;548;48.778;9.252;2022-08-03T11:45:30;41.10;36.50
1123;DHT22;548;48.778;9.252;2022-08-03T11:47:59;41.10;36.50
1123;DHT22;548;48.778;9.252;2022-08-03T11:50:35;41.60;35.90
1123;DHT22;548;48.778;9.252;2022-08-03T11:53:02;41.50;35.60
1123;DHT22;548;48.778;9.252;2022-08-03T11:55:32;41.40;36.40
1123;DHT22;548;48.778;9.252;2022-08-03T11:57:59;40.90;36.70
1123;DHT22;548;48.778;9.252;2022-08-03T12:00:27;39.50;38.40
1123;DHT22;548;48.778;9.252;2022-08-03T12:03:00;39.70;39.20
1123;DHT22;548;48.778;9.252;2022-08-03T12:05:39;40.20;37.60
1123;DHT22;548;48.778;9.252;2022-08-03T12:08:07;40.50;37.50
1123;DHT22;548;48.778;9.252;2022-08-03T12:10:36;40.30;37.10
1123;DHT22;548;48.778;9.252;2022-08-03T12:13:04;40.20;37.50
1123;DHT22;548;48.778;9.252;2022-08-03T12:15:34;39.30;39.10
1123;DHT22;548;48.778;9.252;2022-08-03T12:18:02;39.10;38.60
1123;DHT22;548;48.778;9.252;2022-08-03T12:20:30;38.40;39.40
1123;DHT22;548;48.778;9.252;2022-08-03T12:23:02;37.80;40.60
1123;DHT22;548;48.778;9.252;2022-08-03T12:25:30;37.60;41.40
1123;DHT22;548;48.778;9.252;2022-08-03T12:28:14;38.10;40.60
1123;DHT22;548;48.778;9.252;2022-08-03T12:30:46;38.30;40.60
1123;DHT22;548;48.778;9.252;2022-08-03T12:33:19;37.30;41.10
1123;DHT22;548;48.778;9.252;2022-08-03T12:35:48;37.60;40.50
1123;DHT22;548;48.778;9.252;2022-08-03T12:38:22;37.10;41.20
1123;DHT22;548;48.778;9.252;2022-08-03T12:40:57;37.90;40.60
1123;DHT22;548;48.778;9.252;2022-08-03T12:43:25;38.70;39.50
1123;DHT22;548;48.778;9.252;2022-08-03T12:48:36;38.20;41.00
1123;DHT22;548;48.778;9.252;2022-08-03T12:51:07;37.60;41.00
1123;DHT22;548;48.778;9.252;2022-08-03T12:53:35;37.10;42.00
1123;DHT22;548;48.778;9.252;2022-08-03T12:56:03;37.10;41.70
1123;DHT22;548;48.778;9.252;2022-08-03T12:58:32;37.20;41.80
1123;DHT22;548;48.778;9.252;2022-08-03T13:01:00;36.80;42.30
1123;DHT22;548;48.778;9.252;2022-08-03T13:03:27;37.20;41.50
1123;DHT22;548;48.778;9.252;2022-08-03T13:05:53;38.10;40.60
1123;DHT22;548;48.778;9.252;2022-08-03T13:08:23;39.60;39.10
1123;DHT22;548;48.778;9.252;2022-08-03T13:10:50;40.30;37.90
1123;DHT22;548;48.778;9.252;2022-08-03T13:13:17;39.80;37.70
1123;DHT22;548;48.778;9.252;2022-08-03T13:15:46;38.80;39.00
1123;DHT22;548;48.778;9.252;2022-08-03T13:18:13;38.50;40.10
1123;DHT22;548;48.778;9.252;2022-08-03T13:20:41;38.30;40.20
1123;DHT22;548;48.778;9.252;2022-08-03T13:23:08;39.10;39.20
1123;DHT22;548;48.778;9.252;2022-08-03T13:25:35;39.60;38.30
1123;DHT22;548;48.778;9.252;2022-08-03T13:28:01;39.70;38.50
1123;DHT22;548;48.778;9.252;2022-08-03T13:30:30;39.10;39.10
1123;DHT22;548;48.778;9.252;2022-08-03T13:32:58;38.10;40.20
1123;DHT22;548;48.778;9.252;2022-08-03T13:35:25;37.70;41.10
1123;DHT22;548;48.778;9.252;2022-08-03T13:37:52;38.00;41.00
1123;DHT22;548;48.778;9.252;2022-08-03T13:40:18;38.40;40.30
1123;DHT22;548;48.778;9.252;2022-08-03T13:42:45;38.70;40.10
1123;DHT22;548;48.778;9.252;2022-08-03T13:45:12;38.20;40.30
1123;DHT22;548;48.778;9.252;2022-08-03T13:47:38;38.20;40.80
1123;DHT22;548;48.778;9.252;2022-08-03T13:50:07;38.00;40.40
1123;DHT22;548;48.778;9.252;2022-08-03T13:52:35;38.70;40.20
1123;DHT22;548;48.778;9.252;2022-08-03T13:55:04;39.80;38.70
1123;DHT22;548;48.778;9.252;2022-08-03T13:57:31;40.30;37.90
1123;DHT22;548;48.778;9.252;2022-08-03T13:59:57;40.10;37.40
1123;DHT22;548;48.778;9.252;2022-08-03T14:02:24;39.50;38.10
1123;DHT22;548;48.778;9.252;2022-08-03T14:04:51;38.90;38.90
1123;DHT22;548;48.778;9.252;2022-08-03T14:07:20;38.30;39.20
1123;DHT22;548;48.778;9.252;2022-08-03T14:09:47;38.00;39.50
1123;DHT22;548;48.778;9.252;2022-08-03T14:12:14;37.80;39.70
1123;DHT22;548;48.778;9.252;2022-08-03T14:14:40;37.00;40.60
1123;DHT22;548;48.778;9.252;2022-08-03T14:17:07;36.80;41.20
1123;DHT22;548;48.778;9.252;2022-08-03T14:19:34;36.50;41.70
1123;DHT22;548;48.778;9.252;2022-08-03T14:22:00;36.20;41.90
1123;DHT22;548;48.778;9.252;2022-08-03T14:24:29;37.00;41.30
1123;DHT22;548;48.778;9.252;2022-08-03T14:26:59;36.90;41.10
1123;DHT22;548;48.778;9.252;2022-08-03T14:29:26;37.20;40.70
1123;DHT22;548;48.778;9.252;2022-08-03T14:31:53;37.70;40.00
1123;DHT22;548;48.778;9.252;2022-08-03T14:34:19;37.10;40.40
1123;DHT22;548;48.778;9.252;2022-08-03T14:36:46;37.30;40.70
1123;DHT22;548;48.778;9.252;2022-08-03T14:39:13;37.90;40.40
1123;DHT22;548;48.778;9.252;2022-08-03T14:41:41;38.60;39.30
1123;DHT22;548;48.778;9.252;2022-08-03T14:44:08;39.20;38.80
1123;DHT22;548;48.778;9.252;2022-08-03T14:46:34;39.40;38.80
1123;DHT22;548;48.778;9.252;2022-08-03T14:49:01;39.50;38.50
1123;DHT22;548;48.778;9.252;2022-08-03T14:51:29;39.60;37.90
1123;DHT22;548;48.778;9.252;2022-08-03T14:53:56;39.60;37.60
1123;DHT22;548;48.778;9.252;2022-08-03T14:56:23;39.50;37.40
1123;DHT22;548;48.778;9.252;2022-08-03T14:58:51;39.50;36.50
1123;DHT22;548;48.778;9.252;2022-08-03T15:01:18;38.90;37.20
1123;DHT22;548;48.778;9.252;2022-08-03T15:03:44;37.90;38.20
1123;DHT22;548;48.778;9.252;2022-08-03T15:06:13;36.80;39.20
1123;DHT22;548;48.778;9.252;2022-08-03T15:08:40;35.70;40.30
1123;DHT22;548;48.778;9.252;2022-08-03T15:11:06;35.10;40.70
1123;DHT22;548;48.778;9.252;2022-08-03T15:13:33;34.80;41.60
1123;DHT22;548;48.778;9.252;2022-08-03T15:16:02;34.70;42.20
1123;DHT22;548;48.778;9.252;2022-08-03T15:18:29;34.60;42.50
1123;DHT22;548;48.778;9.252;2022-08-03T15:20:56;34.30;40.20
1123;DHT22;548;48.778;9.252;2022-08-03T15:23:23;34.20;42.90
1123;DHT22;548;48.778;9.252;2022-08-03T15:25:51;34.00;44.30
1123;DHT22;548;48.778;9.252;2022-08-03T15:28:17;33.80;44.60
1123;DHT22;548;48.778;9.252;2022-08-03T15:30:44;33.70;44.40
1123;DHT22;548;48.778;9.252;2022-08-03T15:33:13;33.60;45.00
1123;DHT22;548;48.778;9.252;2022-08-03T15:35:40;33.50;45.00
1123;DHT22;548;48.778;9.252;2022-08-03T15:38:07;33.30;45.00
1123;DHT22;548;48.778;9.252;2022-08-03T15:40:34;33.30;45.10
1123;DHT22;548;48.778;9.252;2022-08-03T15:43:00;33.30;45.20
1123;DHT22;548;48.778;9.252;2022-08-03T15:45:27;33.40;44.40
1123;DHT22;548;48.778;9.252;2022-08-03T15:47:54;33.40;44.10
1123;DHT22;548;48.778;9.252;2022-08-03T15:50:22;33.40;43.80
1123;DHT22;548;48.778;9.252;2022-08-03T15:52:49;33.40;43.90
1123;DHT22;548;48.778;9.252;2022-08-03T15:55:16;33.50;43.90
1123;DHT22;548;48.778;9.252;2022-08-03T15:57:42;33.40;43.70
1123;DHT22;548;48.778;9.252;2022-08-03T16:00:10;33.40;44.10
1123;DHT22;548;48.778;9.252;2022-08-03T16:02:37;33.40;43.80
1123;DHT22;548;48.778;9.252;2022-08-03T16:05:05;33.40;43.60
1123;DHT22;548;48.778;9.252;2022-08-03T16:07:33;33.40;43.90
1123;DHT22;548;48.778;9.252;2022-08-03T16:10:11;33.40;43.70
1123;DHT22;548;48.778;9.252;2022-08-03T16:12:38;33.30;44.30
1123;DHT22;548;48.778;9.252;2022-08-03T16:15:07;33.30;45.30
1123;DHT22;548;48.778;9.252;2022-08-03T16:17:33;33.20;45.60
1123;DHT22;548;48.778;9.252;2022-08-03T16:20:00;33.10;45.60
1123;DHT22;548;48.778;9.252;2022-08-03T16:22:27;33.10;45.90
1123;DHT22;548;48.778;9.252;2022-08-03T16:24:55;33.10;45.70
1123;DHT22;548;48.778;9.252;2022-08-03T16:27:23;33.10;45.50
1123;DHT22;548;48.778;9.252;2022-08-03T16:29:49;33.10;46.00
1123;DHT22;548;48.778;9.252;2022-08-03T16:32:16;33.10;46.40
1123;DHT22;548;48.778;9.252;2022-08-03T16:34:43;33.10;45.70
1123;DHT22;548;48.778;9.252;2022-08-03T16:37:10;33.00;45.40
1123;DHT22;548;48.778;9.252;2022-08-03T16:39:37;33.00;45.50
1123;DHT22;548;48.778;9.252;2022-08-03T16:42:05;33.10;45.60
1123;DHT22;548;48.778;9.252;2022-08-03T16:44:32;33.10;45.70
1123;DHT22;548;48.778;9.252;2022-08-03T16:47:01;33.10;46.10
1123;DHT22;548;48.778;9.252;2022-08-03T16:49:28;33.10;45.90
1123;DHT22;548;48.778;9.252;2022-08-03T16:51:54;33.10;46.10
1123;DHT22;548;48.778;9.252;2022-08-03T16:54:21;33.00;45.60
1123;DHT22;548;48.778;9.252;2022-08-03T16:56:48;33.00;45.60
1123;DHT22;548;48.778;9.252;2022-08-03T16:59:16;33.00;45.60
1123;DHT22;548;48.778;9.252;2022-08-03T17:01:44;32.90;45.80
1123;DHT22;548;48.778;9.252;2022-08-03T17:04:12;32.80;45.80
1123;DHT22;548;48.778;9.252;2022-08-03T17:06:39;32.80;45.50
1123;DHT22;548;48.778;9.252;2022-08-03T17:09:08;32.80;45.90
1123;DHT22;548;48.778;9.252;2022-08-03T17:11:37;32.80;46.70
1123;DHT22;548;48.778;9.252;2022-08-03T17:14:04;32.80;46.00
1123;DHT22;548;48.778;9.252;2022-08-03T17:16:33;32.80;46.10
1123;DHT22;548;48.778;9.252;2022-08-03T17:19:02;32.70;46.20
1123;DHT22;548;48.778;9.252;2022-08-03T17:21:30;32.70;46.10
1123;DHT22;548;48.778;9.252;2022-08-03T17:24:05;32.70;46.10
1123;DHT22;548;48.778;9.252;2022-08-03T17:26:38;32.70;46.00
1123;DHT22;548;48.778;9.252;2022-08-03T17:29:07;32.60;45.70
1123;DHT22;548;48.778;9.252;2022-08-03T17:31:36;32.60;45.70
1123;DHT22;548;48.778;9.252;2022-08-03T17:34:03;32.50;46.00
1123;DHT22;548;48.778;9.252;2022-08-03T17:36:30;32.50;46.50
1123;DHT22;548;48.778;9.252;2022-08-03T17:38:57;32.50;46.50
1123;DHT22;548;48.778;9.252;2022-08-03T17:41:24;32.50;47.00
1123;DHT22;548;48.778;9.252;2022-08-03T17:43:52;32.50;47.30
1123;DHT22;548;48.778;9.252;2022-08-03T17:46:19;32.40;46.60
1123;DHT22;548;48.778;9.252;2022-08-03T17:48:48;32.40;46.50
1123;DHT22;548;48.778;9.252;2022-08-03T17:51:20;32.40;46.50
1123;DHT22;548;48.778;9.252;2022-08-03T17:53:56;32.30;46.50
1123;DHT22;548;48.778;9.252;2022-08-03T17:56:27;32.30;46.90
1123;DHT22;548;48.778;9.252;2022-08-03T17:59:05;32.30;47.50
1123;DHT22;548;48.778;9.252;2022-08-03T18:01:38;32.30;47.80
1123;DHT22;548;48.778;9.252;2022-08-03T18:04:26;32.30;48.20
1123;DHT22;548;48.778;9.252;2022-08-03T18:06:56;32.20;47.90
1123;DHT22;548;48.778;9.252;2022-08-03T18:09:26;32.20;48.20
1123;DHT22;548;48.778;9.252;2022-08-03T18:11:57;32.10;48.60
1123;DHT22;548;48.778;9.252;2022-08-03T18:14:33;32.00;48.90
1123;DHT22;548;48.778;9.252;2022-08-03T18:17:05;32.00;49.20
1123;DHT22;548;48.778;9.252;2022-08-03T18:19:34;31.90;49.20
1123;DHT22;548;48.778;9.252;2022-08-03T18:22:02;31.90;50.40
1123;DHT22;548;48.778;9.252;2022-08-03T18:24:30;31.80;49.70
1123;DHT22;548;48.778;9.252;2022-08-03T18:26:58;31.80;50.50
1123;DHT22;548;48.778;9.252;2022-08-03T18:29:26;31.70;51.10
1123;DHT22;548;48.778;9.252;2022-08-03T18:31:57;31.60;51.60
1123;DHT22;548;48.778;9.252;2022-08-03T18:34:26;31.50;52.00
1123;DHT22;548;48.778;9.252;2022-08-03T18:36:56;31.40;52.60
1123;DHT22;548;48.778;9.252;2022-08-03T18:39:26;31.30;52.30
1123;DHT22;548;48.778;9.252;2022-08-03T18:41:53;31.20;53.40
1123;DHT22;548;48.778;9.252;2022-08-03T18:44:20;31.10;52.90
1123;DHT22;548;48.778;9.252;2022-08-03T18:46:55;31.00;54.00
1123;DHT22;548;48.778;9.252;2022-08-03T18:49:34;30.80;53.60
1123;DHT22;548;48.778;9.252;2022-08-03T18:52:12;30.80;54.20
1123;DHT22;548;48.778;9.252;2022-08-03T18:54:49;30.70;55.10
1123;DHT22;548;48.778;9.252;2022-08-03T18:57:21;30.50;55.80
1123;DHT22;548;48.778;9.252;2022-08-03T18:59:52;30.30;55.70